Terminal Aerodrome Forecast
Issued by NWS

Home | Current Version | Previous Version | Text Only | Print | Product List | Glossary On
Versions: 1 2 3 4 5 6 7 8 9 10 11 12 13 14 15 16 17 18 19
000
FTUS43 KGLD 190417 AAA
TAFMCK
TAF AMD
KMCK 190417Z 1904/1924 VRB03KT 2SM BR SCT005
     FM190600 VRB03KT 1SM BR BKN005
      TEMPO 1910/1914 1/2SM FZFG BKN005
     FM191500 17005KT P6SM SCT005 SCT250=

USA.gov is the U.S. government's official web portal to all federal, state and local government web resources and services.